createdAt,value
2018-08-31T00:02:26.856Z,15.43
2018-08-31T00:05:40.657Z,12.53
2018-08-31T00:08:35.068Z,20.43
2018-08-31T00:11:21.401Z,16.80
2018-08-31T00:13:50.571Z,11.60
2018-08-31T00:16:19.670Z,7.77
2018-08-31T00:18:48.843Z,16.80
2018-08-31T00:21:17.940Z,18.87
2018-08-31T00:24:04.227Z,15.33
2018-08-31T00:26:50.457Z,16.83
2018-08-31T00:29:49.006Z,15.13
2018-08-31T00:34:48.107Z,11.83
2018-08-31T00:37:34.846Z,11.60
2018-08-31T00:40:19.172Z,8.43
2018-08-31T00:45:25.543Z,12.10
2018-08-31T00:47:54.716Z,14.13
2018-08-31T00:50:23.925Z,14.10
2018-08-31T00:52:53.060Z,11.60
2018-08-31T00:55:22.219Z,19.47
2018-08-31T00:57:51.896Z,21.87
2018-08-31T01:00:21.516Z,12.33
2018-08-31T01:02:50.673Z,19.30
2018-08-31T01:05:20.107Z,15.90
2018-08-31T01:07:49.706Z,16.00
2018-08-31T01:10:20.542Z,11.33
2018-08-31T01:12:49.839Z,8.20
2018-08-31T01:15:18.957Z,11.63
2018-08-31T01:17:48.095Z,13.93
2018-08-31T01:20:17.262Z,16.63
2018-08-31T01:22:46.618Z,13.63
2018-08-31T01:25:15.747Z,9.73
2018-08-31T01:27:44.888Z,21.00
2018-08-31T01:30:14.058Z,9.97
2018-08-31T01:32:43.150Z,15.87
2018-08-31T01:35:12.279Z,10.13
2018-08-31T01:37:41.444Z,10.83
2018-08-31T01:40:10.619Z,10.00
2018-08-31T01:42:39.710Z,12.47
2018-08-31T01:45:08.862Z,10.97
2018-08-31T01:47:37.953Z,12.43
2018-08-31T01:50:07.084Z,13.53
2018-08-31T01:52:36.213Z,14.53
2018-08-31T01:55:05.300Z,10.07
2018-08-31T01:57:34.443Z,10.93
2018-08-31T02:00:03.802Z,18.87
2018-08-31T02:02:32.889Z,11.17
2018-08-31T02:05:02.008Z,10.50
2018-08-31T02:07:31.164Z,9.40
2018-08-31T02:10:00.335Z,13.80
2018-08-31T02:12:29.434Z,12.77
2018-08-31T02:14:58.594Z,13.00
2018-08-31T02:17:27.734Z,11.57
2018-08-31T02:19:56.986Z,14.83
2018-08-31T02:22:26.128Z,16.77
2018-08-31T02:24:55.296Z,19.70
2018-08-31T02:27:24.406Z,20.57
2018-08-31T02:29:53.604Z,14.03
2018-08-31T02:32:22.670Z,10.40
2018-08-31T02:34:51.783Z,15.27
2018-08-31T02:37:20.951Z,13.03
2018-08-31T02:39:50.067Z,14.37
2018-08-31T02:42:20.739Z,10.43
2018-08-31T02:44:49.825Z,13.90
2018-08-31T02:47:18.958Z,13.40
2018-08-31T02:49:48.105Z,11.63
2018-08-31T02:52:17.210Z,11.47
2018-08-31T02:54:46.278Z,22.90
2018-08-31T02:57:15.394Z,16.27
2018-08-31T02:59:44.559Z,8.50
2018-08-31T03:02:13.706Z,16.97
2018-08-31T03:04:42.900Z,16.73
2018-08-31T03:07:12.039Z,17.10
2018-08-31T03:09:41.221Z,13.70
2018-08-31T03:12:10.304Z,19.33
2018-08-31T03:14:39.471Z,10.57
2018-08-31T03:17:08.644Z,15.10
2018-08-31T03:19:37.785Z,15.30
2018-08-31T03:22:06.858Z,15.83
2018-08-31T03:24:35.989Z,16.40
2018-08-31T03:27:05.243Z,14.47
2018-08-31T03:29:34.361Z,11.27
2018-08-31T03:32:03.658Z,15.80
2018-08-31T03:34:32.829Z,8.70
2018-08-31T03:37:01.941Z,14.33
2018-08-31T03:39:31.109Z,13.67
2018-08-31T03:42:00.316Z,9.30
2018-08-31T03:44:29.426Z,23.83
2018-08-31T03:46:58.712Z,21.07
2018-08-31T03:49:27.851Z,11.90
2018-08-31T03:51:57.016Z,15.83
2018-08-31T03:54:26.201Z,23.23
2018-08-31T03:56:55.467Z,15.63
2018-08-31T03:59:24.678Z,19.00
2018-08-31T04:01:53.798Z,17.80
2018-08-31T04:04:22.955Z,13.40
2018-08-31T04:06:52.175Z,15.17
2018-08-31T04:09:23.844Z,10.97
2018-08-31T04:11:53.005Z,11.43
2018-08-31T04:14:22.182Z,20.33
2018-08-31T04:16:51.342Z,15.60
2018-08-31T04:19:20.548Z,16.13
2018-08-31T04:21:49.720Z,14.90
2018-08-31T04:24:18.876Z,11.30
2018-08-31T04:26:48.276Z,14.60
2018-08-31T04:29:17.377Z,13.83
2018-08-31T04:31:46.506Z,16.33
2018-08-31T04:34:15.665Z,17.37
2018-08-31T04:36:44.949Z,17.40
2018-08-31T04:39:14.578Z,14.77
2018-08-31T04:41:44.503Z,26.10
2018-08-31T04:44:13.682Z,21.53
2018-08-31T04:46:42.790Z,15.90
2018-08-31T04:49:11.927Z,17.90
2018-08-31T04:51:41.088Z,10.93
2018-08-31T04:54:10.228Z,15.40
2018-08-31T04:56:39.585Z,12.67
2018-08-31T04:59:08.695Z,8.40
2018-08-31T05:01:37.808Z,16.13
2018-08-31T05:04:06.978Z,17.20
2018-08-31T05:06:36.393Z,16.03
2018-08-31T05:09:08.899Z,14.10
2018-08-31T05:11:38.063Z,12.70
2018-08-31T05:14:07.170Z,9.73
2018-08-31T05:16:36.302Z,11.03
2018-08-31T05:19:05.426Z,15.50
2018-08-31T05:21:34.672Z,8.93
2018-08-31T05:24:03.863Z,12.53
2018-08-31T05:26:33.056Z,18.60
2018-08-31T05:29:02.255Z,10.07
2018-08-31T05:31:31.442Z,12.63
2018-08-31T05:34:00.690Z,8.23
2018-08-31T05:36:29.889Z,9.47
2018-08-31T05:38:59.064Z,12.67
2018-08-31T05:41:28.329Z,9.27
2018-08-31T05:43:57.457Z,7.10
2018-08-31T05:46:26.645Z,8.50
2018-08-31T05:48:55.887Z,11.90
2018-08-31T05:51:25.062Z,12.20
2018-08-31T05:53:54.183Z,13.30
2018-08-31T05:56:23.417Z,12.53
2018-08-31T05:58:52.591Z,7.70
2018-08-31T06:01:21.737Z,11.23
2018-08-31T06:03:50.957Z,10.13
2018-08-31T06:06:20.113Z,14.93
2018-08-31T06:08:49.289Z,18.37
2018-08-31T06:11:18.490Z,20.17
2018-08-31T06:13:47.711Z,9.37
2018-08-31T06:16:16.852Z,8.47
2018-08-31T06:18:45.964Z,13.60
2018-08-31T06:21:15.121Z,14.20
2018-08-31T06:23:44.287Z,11.80
2018-08-31T06:26:13.411Z,18.83
2018-08-31T06:28:42.561Z,13.37
2018-08-31T06:31:11.705Z,14.03
2018-08-31T06:33:41.002Z,17.53
2018-08-31T06:36:10.187Z,6.80
2018-08-31T06:38:39.375Z,12.00
2018-08-31T06:41:08.601Z,7.73
2018-08-31T06:43:37.757Z,14.03
2018-08-31T06:46:06.916Z,15.60
2018-08-31T06:48:36.101Z,16.43
2018-08-31T06:51:05.295Z,14.10
2018-08-31T06:53:34.503Z,15.87
2018-08-31T06:56:03.699Z,10.73
2018-08-31T06:58:32.801Z,16.00
2018-08-31T07:01:01.963Z,18.83
2018-08-31T07:03:31.061Z,13.53
2018-08-31T07:06:00.184Z,11.27
2018-08-31T07:08:29.348Z,14.20
2018-08-31T07:10:58.498Z,21.77
2018-08-31T07:13:27.671Z,11.00
2018-08-31T07:15:56.858Z,15.83
2018-08-31T07:18:26.052Z,9.37
2018-08-31T07:20:55.178Z,11.60
2018-08-31T07:23:24.416Z,13.37
2018-08-31T07:25:53.730Z,10.20
2018-08-31T07:28:22.848Z,14.60
2018-08-31T07:30:51.988Z,19.23
2018-08-31T07:33:21.128Z,9.53
2018-08-31T07:35:51.140Z,10.53
2018-08-31T07:38:20.195Z,11.97
2018-08-31T07:40:49.545Z,6.67
2018-08-31T07:43:18.695Z,14.13
2018-08-31T07:45:47.864Z,9.10
2018-08-31T07:48:17.030Z,11.23
2018-08-31T07:50:46.200Z,15.20
2018-08-31T07:53:15.339Z,9.73
2018-08-31T07:55:44.458Z,12.83
2018-08-31T07:58:13.595Z,13.60
2018-08-31T08:00:42.749Z,11.30
2018-08-31T08:03:12.080Z,15.87
2018-08-31T08:05:41.279Z,10.23
2018-08-31T08:08:10.371Z,13.23
2018-08-31T08:10:39.458Z,15.17
2018-08-31T08:13:08.578Z,15.73
2018-08-31T08:15:37.762Z,15.00
2018-08-31T08:18:07.130Z,15.90
2018-08-31T08:20:36.288Z,8.57
2018-08-31T08:23:05.539Z,8.90
2018-08-31T08:25:34.681Z,10.43
2018-08-31T08:28:03.816Z,24.63
2018-08-31T08:30:32.962Z,12.07
2018-08-31T08:33:02.147Z,12.60
2018-08-31T08:35:31.305Z,15.37
2018-08-31T08:38:00.474Z,11.13
2018-08-31T08:40:29.564Z,14.07
2018-08-31T08:42:58.686Z,13.17
2018-08-31T08:45:27.917Z,12.53
2018-08-31T08:47:57.146Z,8.90
2018-08-31T08:50:26.261Z,12.97
2018-08-31T08:52:55.424Z,13.07
2018-08-31T08:55:24.622Z,14.73
2018-08-31T08:57:53.741Z,10.80
2018-08-31T09:00:22.899Z,12.20
2018-08-31T09:02:52.048Z,9.47
2018-08-31T09:05:21.363Z,12.53
2018-08-31T09:07:50.516Z,12.07
2018-08-31T09:10:19.645Z,15.73
2018-08-31T09:12:48.797Z,14.13
2018-08-31T09:15:17.969Z,18.37
2018-08-31T09:17:47.107Z,11.10
2018-08-31T09:20:16.303Z,9.73
2018-08-31T09:22:45.497Z,14.73
2018-08-31T09:25:14.635Z,8.20
2018-08-31T09:27:43.826Z,9.03
2018-08-31T09:30:18.387Z,9.20
2018-08-31T09:32:47.593Z,4.87
2018-08-31T09:35:16.716Z,8.17
2018-08-31T09:37:45.922Z,4.83
2018-08-31T09:40:15.068Z,8.27
2018-08-31T09:42:44.187Z,8.80
2018-08-31T09:45:13.340Z,6.53
2018-08-31T09:47:42.536Z,5.40
2018-08-31T09:50:11.694Z,5.63
2018-08-31T09:52:40.811Z,4.87
2018-08-31T09:55:10.000Z,9.13
2018-08-31T09:57:39.129Z,9.10
2018-08-31T10:00:08.287Z,8.43
2018-08-31T10:02:39.935Z,12.80
2018-08-31T10:05:09.517Z,3.87
2018-08-31T10:07:38.648Z,6.80
2018-08-31T10:10:07.834Z,6.97
2018-08-31T10:12:36.960Z,9.00
2018-08-31T10:15:06.141Z,6.03
2018-08-31T10:17:35.323Z,6.00
2018-08-31T10:20:04.448Z,8.77
2018-08-31T10:22:33.705Z,6.37
2018-08-31T10:25:02.900Z,13.80
2018-08-31T10:27:32.069Z,10.00
2018-08-31T10:30:01.228Z,3.83
2018-08-31T10:32:30.382Z,7.77
2018-08-31T10:34:59.591Z,3.60
2018-08-31T10:37:28.658Z,4.87
2018-08-31T10:39:57.837Z,14.70
2018-08-31T10:42:26.928Z,7.43
2018-08-31T10:44:56.064Z,5.43
2018-08-31T10:47:25.187Z,6.03
2018-08-31T10:49:54.451Z,9.43
2018-08-31T10:52:23.540Z,10.33
2018-08-31T10:54:52.876Z,10.40
2018-08-31T10:57:22.019Z,9.40
2018-08-31T10:59:51.169Z,8.47
2018-08-31T11:02:20.291Z,10.90
2018-08-31T11:04:49.424Z,11.23
2018-08-31T11:07:18.600Z,6.23
2018-08-31T11:09:47.703Z,7.30
2018-08-31T11:12:17.033Z,7.60
2018-08-31T11:14:46.182Z,10.37
2018-08-31T11:17:15.390Z,7.20
2018-08-31T11:19:44.565Z,8.60
2018-08-31T11:22:13.733Z,7.40
2018-08-31T11:24:42.912Z,15.00
2018-08-31T11:27:12.030Z,3.80
2018-08-31T11:29:41.252Z,5.30
2018-08-31T11:32:10.697Z,11.03
2018-08-31T11:34:39.908Z,8.13
2018-08-31T11:37:09.016Z,8.20
2018-08-31T11:39:38.111Z,10.40
2018-08-31T11:42:07.362Z,11.07
2018-08-31T11:44:36.587Z,6.30
2018-08-31T11:47:05.782Z,10.33
2018-08-31T11:49:34.924Z,6.80
2018-08-31T11:52:04.129Z,11.30
2018-08-31T11:54:33.396Z,8.37
2018-08-31T11:57:02.537Z,5.30
2018-08-31T11:59:31.693Z,4.07
2018-08-31T12:02:00.882Z,5.20
2018-08-31T12:04:29.995Z,9.37
2018-08-31T12:06:59.102Z,11.00
2018-08-31T12:09:28.278Z,6.30
2018-08-31T12:11:57.403Z,6.03
2018-08-31T12:14:26.535Z,3.93
2018-08-31T12:16:55.716Z,14.00
2018-08-31T12:19:24.910Z,6.97
2018-08-31T12:21:54.869Z,6.80
2018-08-31T12:24:24.170Z,4.00
2018-08-31T12:26:53.502Z,5.47
2018-08-31T12:29:22.620Z,10.43
2018-08-31T12:31:51.753Z,4.10
2018-08-31T12:34:23.789Z,7.43
2018-08-31T12:36:52.974Z,9.83
2018-08-31T12:39:22.121Z,7.40
2018-08-31T12:41:51.372Z,8.37
2018-08-31T12:44:20.615Z,9.60
2018-08-31T12:46:49.724Z,9.53
2018-08-31T12:49:19.062Z,8.50
2018-08-31T12:51:48.187Z,8.03
2018-08-31T12:54:17.325Z,8.70
2018-08-31T12:56:46.574Z,5.90
2018-08-31T12:59:15.813Z,5.33
2018-08-31T13:01:44.989Z,6.30
2018-08-31T13:04:14.118Z,11.40
2018-08-31T13:06:43.233Z,7.90
2018-08-31T13:09:12.512Z,9.27
2018-08-31T13:11:41.625Z,8.43
2018-08-31T13:14:10.781Z,6.80
2018-08-31T13:16:40.041Z,3.97
2018-08-31T13:19:09.237Z,7.90
2018-08-31T13:21:38.365Z,6.87
2018-08-31T13:24:07.588Z,4.97
2018-08-31T13:26:36.739Z,5.47
2018-08-31T13:29:05.839Z,9.33
2018-08-31T13:31:35.099Z,6.73
2018-08-31T13:34:04.187Z,3.80
2018-08-31T13:36:33.519Z,3.10
2018-08-31T13:39:02.674Z,8.23
2018-08-31T13:41:31.884Z,9.83
2018-08-31T13:44:01.007Z,4.50
2018-08-31T13:46:30.270Z,9.00
2018-08-31T13:48:59.375Z,6.80
2018-08-31T13:51:28.555Z,1.63
2018-08-31T13:53:57.754Z,5.07
2018-08-31T13:56:26.878Z,8.87
2018-08-31T13:58:57.295Z,9.50
2018-08-31T14:01:26.439Z,6.07
2018-08-31T14:03:55.941Z,8.20
2018-08-31T14:06:25.131Z,7.40
2018-08-31T14:08:54.350Z,5.53
2018-08-31T14:11:23.499Z,5.50
2018-08-31T14:13:52.675Z,5.83
2018-08-31T14:16:21.811Z,6.13
2018-08-31T14:18:50.990Z,5.50
2018-08-31T14:21:20.331Z,5.03
2018-08-31T14:23:49.526Z,4.87
2018-08-31T14:26:18.688Z,8.80
2018-08-31T14:28:47.801Z,5.07
2018-08-31T14:31:16.970Z,7.33
2018-08-31T14:33:46.371Z,7.10
2018-08-31T14:36:15.532Z,6.27
2018-08-31T14:38:44.669Z,6.87
2018-08-31T14:41:13.785Z,7.93
2018-08-31T14:43:42.929Z,8.37
2018-08-31T14:46:12.048Z,6.67
2018-08-31T14:48:41.188Z,6.17
2018-08-31T14:51:10.385Z,6.37
2018-08-31T14:53:39.503Z,9.53
2018-08-31T14:56:08.676Z,9.63
2018-08-31T14:58:37.904Z,16.53
2018-08-31T15:01:07.035Z,4.73
2018-08-31T15:03:36.192Z,3.73
2018-08-31T15:06:05.470Z,9.70
2018-08-31T15:08:34.687Z,5.80
2018-08-31T15:11:04.561Z,4.07
2018-08-31T15:13:33.672Z,4.60
2018-08-31T15:16:02.855Z,7.07
2018-08-31T15:18:32.023Z,5.60
2018-08-31T15:21:01.141Z,6.63
2018-08-31T15:23:30.327Z,13.77
2018-08-31T15:25:59.441Z,7.50
2018-08-31T15:28:28.540Z,6.13
2018-08-31T15:30:57.693Z,8.60
2018-08-31T15:33:26.833Z,9.97
2018-08-31T15:35:56.005Z,5.87
2018-08-31T15:38:25.203Z,3.27
2018-08-31T15:40:54.431Z,3.37
2018-08-31T15:43:23.836Z,6.50
2018-08-31T15:45:52.982Z,8.17
2018-08-31T15:48:22.156Z,6.30
2018-08-31T15:50:51.360Z,11.73
2018-08-31T15:53:20.515Z,13.27
2018-08-31T15:55:49.696Z,6.53
2018-08-31T15:58:18.916Z,6.83
2018-08-31T16:00:48.099Z,7.47
2018-08-31T16:03:17.245Z,4.77
2018-08-31T16:05:46.439Z,6.97
2018-08-31T16:08:15.820Z,6.30
2018-08-31T16:10:45.037Z,3.13
2018-08-31T16:13:14.261Z,5.47
2018-08-31T16:15:43.513Z,5.17
2018-08-31T16:18:12.632Z,5.90
2018-08-31T16:20:41.809Z,5.97
2018-08-31T16:23:11.202Z,6.93
2018-08-31T16:25:40.348Z,7.83
2018-08-31T16:28:09.458Z,7.57
2018-08-31T16:30:38.546Z,5.07
2018-08-31T16:33:07.883Z,6.60
2018-08-31T16:35:37.061Z,10.83
2018-08-31T16:38:06.232Z,9.43
2018-08-31T16:40:35.534Z,4.67
2018-08-31T16:43:04.747Z,10.43
2018-08-31T16:45:33.910Z,7.10
2018-08-31T16:48:03.055Z,4.67
2018-08-31T16:50:32.212Z,3.87
2018-08-31T16:53:01.335Z,4.13
2018-08-31T16:55:30.573Z,8.97
2018-08-31T16:57:59.979Z,7.87
2018-08-31T17:00:29.117Z,10.30
2018-08-31T17:02:58.252Z,6.00
2018-08-31T17:05:27.507Z,3.93
2018-08-31T17:07:56.700Z,6.17
2018-08-31T17:10:25.776Z,15.73
2018-08-31T17:12:54.882Z,8.03
2018-08-31T17:15:23.982Z,10.90
2018-08-31T17:17:53.148Z,7.83
2018-08-31T17:20:22.265Z,8.07
2018-08-31T17:22:51.498Z,18.27
2018-08-31T17:25:20.577Z,13.50
2018-08-31T17:27:54.981Z,38.43
2018-08-31T17:30:24.238Z,67.30
2018-08-31T17:32:58.829Z,46.33
2018-08-31T17:35:33.261Z,21.20
2018-08-31T17:38:02.819Z,15.63
2018-08-31T17:40:31.959Z,6.30
2018-08-31T17:43:01.958Z,9.43
2018-08-31T17:45:31.100Z,3.03
2018-08-31T17:48:00.201Z,10.20
2018-08-31T17:50:29.323Z,11.00
2018-08-31T17:52:58.435Z,2.70
2018-08-31T17:55:27.525Z,8.30
2018-08-31T17:57:56.686Z,9.30
2018-08-31T18:00:25.835Z,11.20
2018-08-31T18:02:54.959Z,10.03
2018-08-31T18:05:24.092Z,16.63
2018-08-31T18:07:53.269Z,4.50
2018-08-31T18:10:22.477Z,3.40
2018-08-31T18:12:51.608Z,6.67
2018-08-31T18:15:20.771Z,5.10
2018-08-31T18:17:49.880Z,10.93
2018-08-31T18:20:19.050Z,8.90
2018-08-31T18:22:48.178Z,2.63
2018-08-31T18:25:17.241Z,5.70
2018-08-31T18:27:46.443Z,5.50
2018-08-31T18:30:15.545Z,11.80
2018-08-31T18:32:44.636Z,6.67
2018-08-31T18:35:13.918Z,9.03
2018-08-31T18:37:43.016Z,9.27
2018-08-31T18:40:12.165Z,6.47
2018-08-31T18:42:41.331Z,9.50
2018-08-31T18:45:10.453Z,7.27
2018-08-31T18:47:39.559Z,5.23
2018-08-31T18:50:08.719Z,5.53
2018-08-31T18:52:37.862Z,6.47
2018-08-31T18:55:06.996Z,5.67
2018-08-31T18:57:36.224Z,8.30
2018-08-31T19:00:05.591Z,4.90
2018-08-31T19:02:34.745Z,15.13
2018-08-31T19:05:03.875Z,6.57
2018-08-31T19:07:33.055Z,7.70
2018-08-31T19:10:02.333Z,9.20
2018-08-31T19:12:31.530Z,12.70
2018-08-31T19:15:00.722Z,4.57
2018-08-31T19:17:29.877Z,4.47
2018-08-31T19:19:59.087Z,3.60
2018-08-31T19:22:28.465Z,2.30
2018-08-31T19:24:57.667Z,10.90
2018-08-31T19:27:26.828Z,8.47
2018-08-31T19:29:56.088Z,5.17
2018-08-31T19:32:25.265Z,8.83
2018-08-31T19:34:54.435Z,5.30
2018-08-31T19:37:23.674Z,10.80
2018-08-31T19:39:52.944Z,4.17
2018-08-31T19:42:22.161Z,7.50
2018-08-31T19:44:51.253Z,8.73
2018-08-31T19:47:20.421Z,6.40
2018-08-31T19:49:49.589Z,6.50
2018-08-31T19:52:18.824Z,10.40
2018-08-31T19:57:45.745Z,8.00
2018-08-31T20:00:14.873Z,12.13
2018-08-31T20:02:44.170Z,21.27
2018-08-31T20:05:13.294Z,4.13
2018-08-31T20:07:42.433Z,10.10
2018-08-31T20:10:11.861Z,6.80
2018-08-31T20:12:41.055Z,9.07
2018-08-31T20:15:10.255Z,6.73
2018-08-31T20:17:39.364Z,11.43
2018-08-31T20:20:08.464Z,6.17
2018-08-31T20:22:37.594Z,9.57
2018-08-31T20:25:06.709Z,7.30
2018-08-31T20:27:42.591Z,6.97
2018-08-31T20:30:11.723Z,7.83
2018-08-31T20:32:40.906Z,4.90
2018-08-31T20:35:10.052Z,6.43
2018-08-31T20:37:39.215Z,6.80
2018-08-31T20:40:08.373Z,7.33
2018-08-31T20:42:37.495Z,6.30
2018-08-31T20:45:07.598Z,10.10
2018-08-31T20:47:36.794Z,8.00
2018-08-31T20:50:06.199Z,9.73
2018-08-31T20:52:35.348Z,6.37
2018-08-31T20:55:04.470Z,6.77
2018-08-31T20:57:33.587Z,7.97
2018-08-31T21:00:02.709Z,5.87
2018-08-31T21:02:31.927Z,10.77
2018-08-31T21:05:01.029Z,7.57
2018-08-31T21:07:30.114Z,8.07
2018-08-31T21:09:59.224Z,9.13
2018-08-31T21:12:28.323Z,3.03
2018-08-31T21:14:57.477Z,5.70
2018-08-31T21:17:26.639Z,7.30
2018-08-31T21:19:55.719Z,10.93
2018-08-31T21:22:24.876Z,9.33
2018-08-31T21:24:54.046Z,8.80
2018-08-31T21:27:23.125Z,9.10
2018-08-31T21:29:52.194Z,9.00
2018-08-31T21:32:21.350Z,6.73
2018-08-31T21:34:50.467Z,9.53
2018-08-31T21:37:19.541Z,7.40
2018-08-31T21:39:48.640Z,9.43
2018-08-31T21:42:17.833Z,7.03
2018-08-31T21:44:46.808Z,6.93
2018-08-31T21:47:15.889Z,4.63
2018-08-31T21:49:45.007Z,4.73
2018-08-31T21:52:14.128Z,9.20
2018-08-31T21:54:43.300Z,3.87
2018-08-31T21:57:12.387Z,6.67
2018-08-31T21:59:41.536Z,13.87
2018-08-31T22:02:10.678Z,5.47
2018-08-31T22:04:39.816Z,4.67
2018-08-31T22:07:09.126Z,6.57
2018-08-31T22:09:38.283Z,7.40
2018-08-31T22:12:07.434Z,8.97
2018-08-31T22:14:36.585Z,4.60
2018-08-31T22:17:05.731Z,4.10
2018-08-31T22:19:34.875Z,8.23
2018-08-31T22:22:03.976Z,5.33
2018-08-31T22:24:33.143Z,4.87
2018-08-31T22:27:02.331Z,7.40
2018-08-31T22:29:31.458Z,11.17
2018-08-31T22:32:00.574Z,3.50
2018-08-31T22:34:29.767Z,11.07
2018-08-31T22:36:58.838Z,5.03
2018-08-31T22:39:27.961Z,6.87
2018-08-31T22:41:57.109Z,7.50
2018-08-31T22:44:26.225Z,7.37
2018-08-31T22:46:55.324Z,5.90
2018-08-31T22:49:24.636Z,8.40
2018-08-31T22:51:53.709Z,3.70
2018-08-31T22:54:22.863Z,4.00
2018-08-31T22:56:51.934Z,5.83
2018-08-31T22:59:21.082Z,5.43
2018-08-31T23:01:50.240Z,5.70
2018-08-31T23:04:19.372Z,6.60
2018-08-31T23:06:48.491Z,10.10
2018-08-31T23:09:17.758Z,9.03
2018-08-31T23:11:46.964Z,11.97
2018-08-31T23:14:16.132Z,6.30
2018-08-31T23:16:45.257Z,8.00
2018-08-31T23:19:14.425Z,9.10
2018-08-31T23:21:43.552Z,8.67
2018-08-31T23:24:12.626Z,7.77
2018-08-31T23:26:41.876Z,10.57
2018-08-31T23:29:11.024Z,15.57
2018-08-31T23:31:40.172Z,6.40
2018-08-31T23:34:09.319Z,8.83
2018-08-31T23:36:38.484Z,10.33
2018-08-31T23:39:08.804Z,6.50
2018-08-31T23:41:37.949Z,8.00
2018-08-31T23:44:07.300Z,14.37
2018-08-31T23:46:36.519Z,8.47
2018-08-31T23:49:05.722Z,5.60
2018-08-31T23:51:34.848Z,6.13
2018-08-31T23:54:04.039Z,8.80
2018-08-31T23:56:33.185Z,14.47
2018-08-31T23:59:02.422Z,6.70
